Altamira Airport

Airport
ICAO code: 
SBHT
IATA Code: 
ATM
Summary
ICAO Region: 
CARSAM
Territory: 
Location: 
Altamira, Para
Serving: 
Altamira
Elevation: 
368 ft
Coordinates: 
Aerial View: 
3° 15' 2.988" S, 52° 15' 7.992" W
Metar
Observation
SBHT 261900Z 09007KT 9999 BKN030 32/24 Q1007
Station
Altamira
Date/Time
2021-11-26 19:00:00
Wind direction
90°
Wind speed
07 kts
Lowest cloud amount
broken clouds
Temperature
32°C
Dew point
24°C
Humidity
62%
QNH
1007 hPa
Weather condition
n/a

Altamira Airport is the airport serving Altamira, Brazil.

Climatology

Tropical rainforest climate (Köppen climate classification Af)

Runways

Designator Length Width Surface Rops
7/25 2003 38 ASP No/No
Airport map: 
Aerial View: 

SKYbrary Partners:

Safety knowledge contributed by: